Time;durP1;ratioP1;P1;durP2;ratioP2;P2;SDS_P1;SDS_P2;PMS_P1;PMS_P2;Temp;Humidity;BMP_temperature;BMP_pressure;BME280_temperature;BME280_humidity;BME280_pressure;Samples;Min_cycle;Max_cycle;Signal;HPM_P1;HPM_P2
2022/07/17 00:01:56;;;;;;;5.30;2.00;;;;;16.52;97739.00;;;;111190;1247;41274;-72
2022/07/17 00:04:26;;;;;;;4.40;2.00;;;;;16.52;97742.20;;;;111333;1247;41121;-72
2022/07/17 00:06:57;;;;;;;5.00;2.20;;;;;16.52;97741.00;;;;111129;1247;41704;-72
2022/07/17 00:09:26;;;;;;;10.90;2.90;;;;;16.52;97732.00;;;;111156;1249;41130;-72
2022/07/17 00:11:55;;;;;;;8.80;2.60;;;;;16.58;97736.80;;;;111328;1245;41193;-72
2022/07/17 00:14:25;;;;;;;12.00;2.70;;;;;16.40;97739.80;;;;111188;1247;42384;-74
2022/07/17 00:16:55;;;;;;;5.70;2.50;;;;;16.30;97736.60;;;;111413;1247;41253;-72
2022/07/17 00:19:26;;;;;;;8.20;2.70;;;;;16.24;97738.20;;;;111426;1244;41300;-73
2022/07/17 00:21:56;;;;;;;6.80;2.70;;;;;16.22;97738.80;;;;111317;1247;41149;-73
2022/07/17 00:24:25;;;;;;;6.80;2.70;;;;;16.20;97743.20;;;;111251;1247;41624;-72
2022/07/17 00:26:55;;;;;;;4.70;2.00;;;;;16.20;97742.80;;;;111071;1247;41354;-73
2022/07/17 00:29:24;;;;;;;5.60;2.00;;;;;16.20;97742.40;;;;111306;1246;41366;-72
2022/07/17 00:31:54;;;;;;;5.50;2.30;;;;;16.22;97744.00;;;;111205;1247;41188;-73
2022/07/17 00:34:23;;;;;;;9.50;3.40;;;;;16.30;97745.40;;;;111201;1246;41726;-73
2022/07/17 00:36:53;;;;;;;8.20;3.10;;;;;16.30;97748.60;;;;111234;1248;41145;-73
2022/07/17 00:39:22;;;;;;;10.80;3.40;;;;;16.30;97747.40;;;;111311;1247;41845;-73
2022/07/17 00:41:52;;;;;;;6.20;2.60;;;;;16.20;97749.80;;;;111110;1248;41245;-73
2022/07/17 00:44:25;;;;;;;;;;;;;16.20;97752.00;;;;111287;1247;41237;-73
2022/07/17 00:46:54;;;;;;;6.30;2.30;;;;;16.20;97750.20;;;;111140;1247;41143;-71
2022/07/17 00:49:25;;;;;;;4.80;2.10;;;;;16.20;97753.80;;;;110934;1248;41198;-72
2022/07/17 00:51:54;;;;;;;5.80;2.30;;;;;16.20;97750.20;;;;111303;1246;41740;-71
2022/07/17 00:54:24;;;;;;;5.50;2.10;;;;;16.20;97752.20;;;;111155;1248;41160;-72
2022/07/17 00:56:55;;;;;;;4.80;2.30;;;;;16.20;97751.40;;;;111096;1248;42397;-72
2022/07/17 00:59:26;;;;;;;5.90;2.60;;;;;16.20;97749.20;;;;111239;1247;42032;-73
2022/07/17 01:01:56;;;;;;;5.80;2.40;;;;;16.20;97755.40;;;;111166;1247;41615;-73
2022/07/17 01:04:26;;;;;;;10.20;3.00;;;;;16.20;97748.60;;;;111150;1247;41719;-73
2022/07/17 01:06:57;;;;;;;7.00;2.90;;;;;16.10;97748.20;;;;111357;1245;41458;-73
2022/07/17 01:09:27;;;;;;;;;;;;;15.90;97749.80;;;;111169;1247;42474;-73
2022/07/17 01:11:58;;;;;;;10.60;4.30;;;;;15.60;97752.00;;;;111255;1247;41249;-72
2022/07/17 01:14:28;;;;;;;;;;;;;15.60;97751.60;;;;111298;1245;41169;-73
2022/07/17 01:16:58;;;;;;;7.10;2.60;;;;;15.52;97752.60;;;;111597;1245;41928;-73
2022/07/17 01:19:28;;;;;;;6.80;2.40;;;;;15.50;97750.00;;;;111171;1247;41671;-72
2022/07/17 01:21:58;;;;;;;5.30;2.10;;;;;15.50;97756.40;;;;111432;1245;41146;-73
2022/07/17 01:24:27;;;;;;;5.00;2.10;;;;;15.52;97764.80;;;;111220;1247;42193;-73
2022/07/17 01:26:57;;;;;;;6.50;2.70;;;;;15.56;97759.60;;;;111420;1246;41254;-74
2022/07/17 01:29:26;;;;;;;6.10;2.50;;;;;15.56;97755.00;;;;111420;1244;41215;-74
2022/07/17 01:31:56;;;;;;;6.40;2.30;;;;;15.52;97765.20;;;;111231;1247;41155;-74
2022/07/17 01:34:27;;;;;;;5.50;2.30;;;;;15.50;97767.80;;;;111500;1245;41602;-74
2022/07/17 01:36:57;;;;;;;6.90;2.50;;;;;15.50;97761.40;;;;111324;1246;41137;-74
2022/07/17 01:42:15;;;;;;;8.50;3.10;;;;;15.48;97762.60;;;;111464;1244;41149;-74
2022/07/17 01:44:44;;;;;;;5.80;2.50;;;;;15.40;97769.40;;;;111156;1248;41937;-74
2022/07/17 01:47:17;;;;;;;8.90;3.20;;;;;15.40;97768.40;;;;111272;1247;41602;-74
2022/07/17 01:49:51;;;;;;;10.70;3.50;;;;;15.20;97764.20;;;;111334;1247;41135;-74
2022/07/17 01:52:23;;;;;;;7.50;3.10;;;;;15.20;97761.20;;;;111276;1247;41270;-75
2022/07/17 01:54:53;;;;;;;8.00;2.80;;;;;15.08;97765.00;;;;111465;1246;42052;-74
2022/07/17 01:57:23;;;;;;;7.00;2.50;;;;;15.00;97772.00;;;;111363;1245;42347;-74
2022/07/17 01:59:54;;;;;;;7.40;2.70;;;;;15.00;97771.60;;;;111157;1248;41890;-74
2022/07/17 02:02:24;;;;;;;6.80;2.60;;;;;15.00;97769.00;;;;111262;1247;41140;-74
2022/07/17 02:04:54;;;;;;;7.00;2.60;;;;;14.96;97761.60;;;;111375;1246;41240;-74
2022/07/17 02:07:24;;;;;;;6.70;2.50;;;;;14.90;97767.60;;;;111295;1245;41972;-73
2022/07/17 02:09:55;;;;;;;6.10;2.50;;;;;14.90;97767.20;;;;111286;1247;41142;-74
2022/07/17 02:12:24;;;;;;;7.60;2.80;;;;;14.80;97760.00;;;;111168;1247;41256;-75
2022/07/17 02:14:54;;;;;;;7.40;2.60;;;;;14.80;97759.20;;;;111297;1246;41638;-75
2022/07/17 02:17:24;;;;;;;8.00;2.90;;;;;14.70;97758.60;;;;111267;1247;41633;-74
2022/07/17 02:19:54;;;;;;;6.20;2.60;;;;;14.68;97754.40;;;;111289;1245;41186;-72
2022/07/17 02:22:24;;;;;;;6.30;2.60;;;;;14.60;97756.40;;;;111176;1247;40910;-73
2022/07/17 02:24:56;;;;;;;5.90;2.30;;;;;14.60;97755.00;;;;111319;1245;41120;-73
2022/07/17 02:27:25;;;;;;;6.00;2.70;;;;;14.60;97752.00;;;;111214;1246;41957;-73
2022/07/17 02:29:56;;;;;;;9.80;2.90;;;;;14.50;97752.20;;;;111502;1246;42392;-73
2022/07/17 02:32:26;;;;;;;;;;;;;14.40;97751.40;;;;111230;1247;41967;-74
2022/07/17 02:34:56;;;;;;;5.80;2.50;;;;;14.30;97752.40;;;;111254;1248;41146;-73
2022/07/17 02:37:26;;;;;;;5.90;2.50;;;;;14.30;97759.00;;;;111127;1244;41602;-74
2022/07/17 02:39:56;;;;;;;8.30;3.60;;;;;14.22;97769.40;;;;111372;1245;41203;-73
2022/07/17 02:42:29;;;;;;;14.30;3.00;;;;;14.20;97778.20;;;;111423;1246;41179;-73
2022/07/17 02:44:59;;;;;;;6.90;2.40;;;;;14.20;97781.40;;;;111393;1246;41301;-73
2022/07/17 02:47:32;;;;;;;5.60;2.30;;;;;14.20;97779.80;;;;111200;1248;42215;-73
2022/07/17 02:50:05;;;;;;;6.50;2.70;;;;;14.10;97783.60;;;;111153;1248;41886;-73
2022/07/17 02:52:36;;;;;;;6.10;2.80;;;;;14.10;97780.80;;;;111289;1247;41168;-74
2022/07/17 02:55:08;;;;;;;8.90;3.00;;;;;14.00;97772.40;;;;111262;1247;41522;-74
2022/07/17 02:57:39;;;;;;;6.70;2.70;;;;;13.90;97767.60;;;;111116;1247;42212;-74
2022/07/17 03:00:12;;;;;;;5.70;2.40;;;;;13.90;97774.40;;;;111159;1247;41602;-74
2022/07/17 03:02:44;;;;;;;4.90;2.20;;;;;13.90;97778.60;;;;111345;1246;41136;-73
2022/07/17 03:05:16;;;;;;;5.10;2.40;;;;;13.90;97780.60;;;;111193;1247;41163;-75
2022/07/17 03:07:46;;;;;;;6.10;2.60;;;;;13.90;97783.20;;;;111259;1247;41148;-74
2022/07/17 03:10:17;;;;;;;7.30;2.90;;;;;13.90;97781.40;;;;111171;1247;40732;-73
2022/07/17 03:12:48;;;;;;;6.00;2.70;;;;;13.90;97787.00;;;;111224;1247;41464;-73
2022/07/17 03:15:19;;;;;;;7.00;2.60;;;;;13.90;97793.20;;;;111378;1246;42591;-73
2022/07/17 03:17:49;;;;;;;6.10;2.80;;;;;13.90;97791.00;;;;111168;1245;40768;-73
2022/07/17 03:20:18;;;;;;;7.50;3.10;;;;;13.90;97794.00;;;;111182;1248;41343;-73
2022/07/17 03:22:48;;;;;;;15.60;3.40;;;;;13.90;97792.40;;;;111309;1246;41762;-73
2022/07/17 03:25:18;;;;;;;7.60;3.10;;;;;13.90;97797.80;;;;111173;1248;41144;-74
2022/07/17 03:27:50;;;;;;;7.10;2.80;;;;;13.90;97802.00;;;;111404;1246;41832;-74
2022/07/17 03:30:21;;;;;;;9.40;3.30;;;;;13.90;97803.00;;;;111443;1244;41129;-74
2022/07/17 03:32:52;;;;;;;6.30;2.80;;;;;13.90;97810.80;;;;111376;1244;41155;-74
2022/07/17 03:35:21;;;;;;;6.30;2.70;;;;;13.90;97806.40;;;;111134;1248;40963;-74
2022/07/17 03:37:51;;;;;;;7.70;3.10;;;;;13.90;97809.00;;;;111169;1247;41943;-74
2022/07/17 03:40:21;;;;;;;7.10;3.00;;;;;13.90;97802.40;;;;111377;1246;41841;-73
2022/07/17 03:42:52;;;;;;;7.40;2.90;;;;;13.90;97808.00;;;;111379;1244;41125;-72
2022/07/17 03:45:21;;;;;;;5.10;2.40;;;;;13.92;97805.20;;;;111211;1248;41529;-72
2022/07/17 03:47:51;;;;;;;8.90;3.70;;;;;14.00;97811.00;;;;111460;1245;41289;-72
2022/07/17 03:50:21;;;;;;;10.80;3.80;;;;;14.06;97808.40;;;;111166;1247;41461;-73
2022/07/17 03:52:51;;;;;;;8.80;3.10;;;;;14.10;97807.60;;;;111239;1246;41140;-73
2022/07/17 03:55:20;;;;;;;7.20;2.90;;;;;14.10;97808.40;;;;111189;1247;41938;-73
2022/07/17 03:57:50;;;;;;;8.60;2.90;;;;;14.18;97807.40;;;;111213;1247;42084;-73
2022/07/17 04:00:20;;;;;;;6.20;2.90;;;;;14.22;97813.60;;;;111145;1248;41164;-74
2022/07/17 04:02:50;;;;;;;7.60;3.20;;;;;14.30;97814.40;;;;111296;1247;41500;-74
2022/07/17 04:05:19;;;;;;;7.60;3.10;;;;;14.40;97820.80;;;;111432;1245;41709;-73
2022/07/17 04:07:48;;;;;;;12.50;3.60;;;;;14.50;97828.20;;;;111330;1247;41607;-74
2022/07/17 04:10:18;;;;;;;6.80;2.90;;;;;14.60;97829.40;;;;111239;1247;41158;-74
2022/07/17 04:12:48;;;;;;;13.40;3.10;;;;;14.66;97826.20;;;;111151;1247;41133;-76
2022/07/17 04:15:49;;;;;;;9.00;3.60;;;;;14.78;97827.60;;;;111037;1248;42385;-74
2022/07/17 04:18:06;;;;;;;10.30;3.80;;;;;14.90;97831.20;;;;111191;1248;41903;-74
2022/07/17 04:20:35;;;;;;;9.90;3.80;;;;;15.00;97833.40;;;;111182;1248;41276;-74
2022/07/17 04:23:05;;;;;;;9.50;3.80;;;;;15.20;97833.40;;;;111302;1247;41818;-75
2022/07/17 04:25:34;;;;;;;10.90;4.20;;;;;15.60;97825.80;;;;111165;1247;41357;-74
2022/07/17 04:28:03;;;;;;;9.20;3.90;;;;;16.10;97831.20;;;;111380;1244;42112;-73
2022/07/17 04:30:33;;;;;;;10.90;3.40;;;;;16.50;97827.40;;;;111236;1247;41126;-75
2022/07/17 04:33:03;;;;;;;8.90;3.50;;;;;17.04;97830.00;;;;111143;1247;41408;-73
2022/07/17 04:35:33;;;;;;;8.70;3.70;;;;;17.48;97825.20;;;;111211;1246;41138;-73
2022/07/17 04:38:04;;;;;;;;;;;;;18.08;97828.00;;;;111255;1246;41605;-74
2022/07/17 04:40:36;;;;;;;8.80;2.80;;;;;18.66;97830.80;;;;111372;1246;41761;-73
2022/07/17 04:43:06;;;;;;;7.00;3.10;;;;;19.20;97825.80;;;;111166;1247;41484;-74
2022/07/17 04:45:36;;;;;;;8.90;3.20;;;;;19.64;97831.60;;;;111178;1247;41749;-73
2022/07/17 04:48:06;;;;;;;7.20;3.20;;;;;20.10;97828.20;;;;111156;1248;41126;-73
2022/07/17 04:50:35;;;;;;;10.10;3.10;;;;;20.40;97833.80;;;;111183;1247;41124;-74
2022/07/17 04:53:04;;;;;;;10.90;3.30;;;;;20.54;97826.00;;;;111069;1248;41619;-74
2022/07/17 04:55:34;;;;;;;6.70;3.00;;;;;20.90;97823.20;;;;111117;1249;41713;-74
2022/07/17 04:58:03;;;;;;;8.90;3.50;;;;;21.30;97818.80;;;;111154;1247;41258;-74
2022/07/17 05:00:32;;;;;;;7.60;3.30;;;;;21.30;97808.40;;;;111327;1242;41129;-74
2022/07/17 05:03:02;;;;;;;11.00;3.50;;;;;21.70;97812.60;;;;111318;1247;41384;-74
2022/07/17 05:05:31;;;;;;;5.50;2.20;;;;;21.90;97808.20;;;;111175;1247;41596;-73
2022/07/17 05:08:00;;;;;;;6.00;2.40;;;;;22.50;97808.20;;;;111452;1244;41360;-73
2022/07/17 05:10:31;;;;;;;6.20;2.40;;;;;23.00;97807.60;;;;111344;1245;42071;-74
2022/07/17 05:13:00;;;;;;;6.30;2.50;;;;;23.40;97807.00;;;;111330;1247;41302;-74
2022/07/17 05:15:29;;;;;;;5.00;2.30;;;;;23.90;97810.60;;;;111178;1246;41940;-72
2022/07/17 05:18:02;;;;;;;6.90;2.60;;;;;24.40;97811.40;;;;111222;1247;41253;-74
2022/07/17 05:20:32;;;;;;;14.00;2.40;;;;;24.60;97809.40;;;;111237;1245;41656;-74
2022/07/17 05:23:01;;;;;;;6.60;2.40;;;;;24.62;97817.00;;;;111151;1248;40764;-74
2022/07/17 05:25:30;;;;;;;7.40;2.60;;;;;24.70;97819.40;;;;111324;1245;41424;-74
2022/07/17 05:27:59;;;;;;;5.40;2.20;;;;;24.70;97819.00;;;;111367;1246;41548;-74
2022/07/17 05:30:29;;;;;;;11.70;2.40;;;;;24.52;97818.60;;;;111450;1246;42145;-74
2022/07/17 05:32:58;;;;;;;6.20;2.20;;;;;24.42;97817.80;;;;111131;1247;41256;-74
2022/07/17 05:35:27;;;;;;;5.50;2.20;;;;;24.18;97823.80;;;;111162;1245;41407;-74
2022/07/17 05:37:56;;;;;;;5.70;2.20;;;;;24.06;97829.20;;;;111462;1244;41369;-75
2022/07/17 05:40:25;;;;;;;5.90;2.20;;;;;23.60;97850.20;;;;111251;1247;41132;-76
2022/07/17 05:42:54;;;;;;;5.80;2.10;;;;;22.94;97855.00;;;;111118;1247;42310;-76
2022/07/17 05:45:24;;;;;;;4.80;2.10;;;;;22.54;97858.20;;;;111355;1244;41245;-78
2022/07/17 05:47:53;;;;;;;6.50;2.10;;;;;22.22;97858.00;;;;111239;1247;41158;-79
2022/07/17 05:50:22;;;;;;;6.60;2.20;;;;;22.10;97858.80;;;;111142;1248;41609;-76
2022/07/17 05:52:51;;;;;;;8.70;2.30;;;;;21.90;97863.80;;;;111142;1247;41147;-77
2022/07/17 05:55:20;;;;;;;5.00;2.00;;;;;22.30;97851.80;;;;111219;1247;41738;-75
2022/07/17 05:57:49;;;;;;;4.10;2.10;;;;;22.84;97854.20;;;;111301;1246;41512;-77
2022/07/17 06:00:18;;;;;;;6.90;2.20;;;;;23.52;97849.60;;;;111524;1244;41235;-77
2022/07/17 06:02:47;;;;;;;6.50;2.10;;;;;24.10;97846.80;;;;111464;1244;41479;-77
2022/07/17 06:05:17;;;;;;;5.50;2.10;;;;;24.60;97849.80;;;;111369;1246;42370;-75
2022/07/17 06:07:48;;;;;;;4.30;2.10;;;;;25.14;97848.60;;;;111260;1247;41248;-77
2022/07/17 06:10:17;;;;;;;5.40;2.10;;;;;25.60;97852.00;;;;111182;1247;42183;-76
2022/07/17 06:12:46;;;;;;;4.90;1.90;;;;;26.10;97855.40;;;;111334;1247;41146;-76
2022/07/17 06:15:16;;;;;;;3.80;1.70;;;;;26.40;97853.00;;;;111253;1248;41133;-73
2022/07/17 06:17:45;;;;;;;5.20;2.10;;;;;26.70;97855.00;;;;111499;1247;41136;-72
2022/07/17 06:20:15;;;;;;;4.50;2.10;;;;;26.96;97855.00;;;;111220;1247;41141;-77
2022/07/17 06:22:45;;;;;;;3.60;1.80;;;;;27.28;97861.00;;;;111030;1244;41158;-74
2022/07/17 06:25:13;;;;;;;6.30;2.10;;;;;27.34;97859.00;;;;111204;1248;42423;-75
2022/07/17 06:27:43;;;;;;;5.50;1.90;;;;;27.70;97861.20;;;;111183;1246;41262;-76
2022/07/17 06:30:13;;;;;;;4.10;1.90;;;;;28.20;97857.20;;;;111619;1246;41175;-72
2022/07/17 06:32:43;;;;;;;4.80;1.90;;;;;28.54;97858.40;;;;111562;1245;42070;-74
2022/07/17 06:35:12;;;;;;;5.40;1.90;;;;;28.90;97850.80;;;;111187;1247;41434;-73
2022/07/17 06:37:41;;;;;;;4.50;1.80;;;;;29.34;97850.20;;;;111197;1245;42346;-72
2022/07/17 06:40:10;;;;;;;3.60;1.70;;;;;29.44;97855.20;;;;111192;1245;41149;-74
2022/07/17 06:42:39;;;;;;;5.40;2.00;;;;;29.82;97851.20;;;;111185;1247;41254;-75
2022/07/17 06:45:09;;;;;;;2.50;1.60;;;;;30.00;97854.40;;;;111274;1247;41142;-73
2022/07/17 06:47:38;;;;;;;4.10;1.80;;;;;30.30;97856.00;;;;111199;1247;41789;-74
2022/07/17 06:50:08;;;;;;;4.90;1.80;;;;;30.70;97860.40;;;;111332;1245;41134;-74
2022/07/17 06:52:37;;;;;;;6.50;1.90;;;;;31.00;97859.60;;;;111524;1245;41317;-74
2022/07/17 06:55:11;;;;;;;3.70;1.50;;;;;31.52;97859.80;;;;111482;1244;41890;-74
2022/07/17 06:57:40;;;;;;;4.80;1.90;;;;;32.24;97858.00;;;;110985;1248;41138;-75
2022/07/17 07:00:10;;;;;;;4.00;1.70;;;;;32.52;97858.20;;;;111233;1247;41146;-74
2022/07/17 07:02:39;;;;;;;3.90;1.60;;;;;32.74;97859.00;;;;111284;1246;42110;-75
2022/07/17 07:05:09;;;;;;;3.60;1.50;;;;;33.10;97854.80;;;;111146;1248;41124;-74
2022/07/17 07:07:38;;;;;;;4.50;1.80;;;;;33.28;97854.60;;;;111188;1246;41150;-74
2022/07/17 07:10:07;;;;;;;4.40;1.50;;;;;33.10;97859.60;;;;111192;1247;41143;-73
2022/07/17 07:12:36;;;;;;;3.90;1.70;;;;;33.10;97861.20;;;;111155;1247;41136;-75
2022/07/17 07:15:06;;;;;;;5.20;1.70;;;;;32.64;97861.00;;;;111472;1245;41958;-74
2022/07/17 07:17:40;;;;;;;3.90;1.70;;;;;31.48;97868.80;;;;111331;1245;41251;-74
2022/07/17 07:20:10;;;;;;;8.20;2.10;;;;;30.30;97879.20;;;;111205;1247;42272;-75
2022/07/17 07:22:39;;;;;;;6.30;1.90;;;;;29.42;97885.80;;;;111364;1247;41124;-74
2022/07/17 07:25:09;;;;;;;4.20;1.60;;;;;28.72;97880.00;;;;111151;1247;41482;-76
2022/07/17 07:27:38;;;;;;;4.40;1.80;;;;;28.12;97887.40;;;;111235;1247;41594;-72
2022/07/17 07:30:09;;;;;;;4.80;1.80;;;;;27.50;97898.00;;;;111181;1245;41205;-74
2022/07/17 07:32:39;;;;;;;4.50;1.50;;;;;27.28;97892.60;;;;111211;1247;41130;-75
2022/07/17 07:35:09;;;;;;;3.80;1.60;;;;;27.06;97893.20;;;;111439;1244;41490;-76
2022/07/17 07:37:39;;;;;;;3.80;1.60;;;;;26.88;97896.60;;;;111231;1248;42058;-72
2022/07/17 07:40:09;;;;;;;5.10;1.90;;;;;26.70;97904.20;;;;111393;1247;41172;-71
2022/07/17 07:42:38;;;;;;;5.30;1.80;;;;;26.50;97908.20;;;;111376;1247;41156;-74
2022/07/17 07:45:08;;;;;;;5.30;2.20;;;;;26.40;97907.20;;;;110907;1247;362847;-74
2022/07/17 07:47:44;;;;;;;3.20;1.70;;;;;26.30;97902.60;;;;111573;1246;41633;-76
2022/07/17 07:50:14;;;;;;;3.50;1.50;;;;;26.10;97910.20;;;;111544;1246;41122;-74
2022/07/17 07:52:43;;;;;;;4.90;1.90;;;;;26.10;97912.40;;;;111168;1247;42048;-76
2022/07/17 07:55:14;;;;;;;4.60;1.60;;;;;26.10;97911.80;;;;111105;1248;41255;-76
2022/07/17 07:57:49;;;;;;;3.70;1.60;;;;;26.00;97917.80;;;;111495;1246;41599;-76
2022/07/17 08:00:18;;;;;;;3.90;1.60;;;;;26.00;97913.40;;;;111460;1245;41632;-76
2022/07/17 08:02:46;;;;;;;4.00;1.70;;;;;25.90;97914.00;;;;111349;1246;41124;-75
2022/07/17 08:05:16;;;;;;;3.00;1.40;;;;;25.80;97918.80;;;;111129;1248;41795;-75
2022/07/17 08:07:44;;;;;;;5.40;2.00;;;;;25.80;97919.40;;;;111293;1247;42215;-75
2022/07/17 08:10:13;;;;;;;4.90;1.60;;;;;25.70;97927.80;;;;111348;1247;41136;-76
2022/07/17 08:12:43;;;;;;;3.90;1.70;;;;;25.80;97926.80;;;;111165;1248;41559;-78
2022/07/17 08:15:15;;;;;;;5.40;1.60;;;;;26.00;97929.80;;;;111248;1248;41597;-74
2022/07/17 08:17:46;;;;;;;6.40;1.70;;;;;26.20;97927.20;;;;111172;1248;41561;-73
2022/07/17 08:20:16;;;;;;;3.60;1.70;;;;;26.30;97925.60;;;;111373;1245;41145;-74
2022/07/17 08:22:46;;;;;;;8.60;1.70;;;;;26.40;97927.00;;;;111265;1247;41150;-72
2022/07/17 08:25:33;;;;;;;4.50;1.70;;;;;26.60;97926.60;;;;111334;1247;41934;-73
2022/07/17 08:28:05;;;;;;;6.60;1.40;;;;;26.50;97924.40;;;;111025;1248;41140;-76
2022/07/17 08:30:34;;;;;;;3.30;1.50;;;;;26.52;97934.80;;;;111168;1247;41150;-75
2022/07/17 08:33:06;;;;;;;3.30;1.50;;;;;26.40;97933.00;;;;111329;1246;41162;-75
2022/07/17 08:35:36;;;;;;;3.00;1.50;;;;;26.28;97944.80;;;;111541;1246;41713;-77
2022/07/17 08:38:05;;;;;;;2.30;1.30;;;;;26.38;97930.00;;;;111482;1247;41247;-74
2022/07/17 08:40:37;;;;;;;2.80;1.30;;;;;26.38;97928.80;;;;111471;1245;41244;-74
2022/07/17 08:43:07;;;;;;;3.30;1.50;;;;;26.30;97931.80;;;;111232;1248;41401;-76
2022/07/17 08:45:39;;;;;;;2.70;1.40;;;;;26.36;97935.60;;;;111400;1247;41312;-76
2022/07/17 08:48:16;;;;;;;2.50;1.20;;;;;26.50;97946.40;;;;110983;1249;41374;-75
2022/07/17 08:50:47;;;;;;;2.50;1.30;;;;;26.70;97942.00;;;;111062;1247;41150;-74
2022/07/17 08:53:16;;;;;;;3.20;1.30;;;;;26.74;97947.20;;;;111357;1245;41169;-75
2022/07/17 08:55:44;;;;;;;4.90;1.30;;;;;26.62;97942.00;;;;111232;1247;41143;-75
2022/07/17 08:58:15;;;;;;;3.70;1.50;;;;;26.96;97954.60;;;;111335;1245;41132;-74
2022/07/17 09:00:45;;;;;;;2.10;1.20;;;;;27.00;97945.20;;;;111126;1248;42298;-75
2022/07/17 09:03:15;;;;;;;3.40;1.30;;;;;27.28;97955.00;;;;111194;1247;42101;-74
2022/07/17 09:05:45;;;;;;;2.10;1.20;;;;;27.50;97957.40;;;;111258;1247;41302;-76
2022/07/17 09:08:19;;;;;;;2.20;1.30;;;;;27.78;97946.80;;;;111536;1247;41136;-74
2022/07/17 09:10:51;;;;;;;2.30;1.10;;;;;27.80;97944.60;;;;111153;1247;41951;-76
2022/07/17 09:13:26;;;;;;;3.10;1.20;;;;;28.02;97950.80;;;;111185;1248;41522;-74
2022/07/17 09:16:10;;;;;;;2.10;1.30;;;;;28.38;97956.80;;;;111177;1247;41719;-74
2022/07/17 09:18:50;;;;;;;3.10;1.30;;;;;28.60;97955.80;;;;111239;1247;42306;-77
2022/07/17 09:21:26;;;;;;;3.80;1.50;;;;;29.00;97946.00;;;;111094;1245;41145;-73
2022/07/17 09:24:02;;;;;;;1.70;1.10;;;;;28.82;97953.40;;;;111193;1247;41339;-74
2022/07/17 09:26:33;;;;;;;1.20;1.00;;;;;29.02;97956.00;;;;111274;1244;41162;-75
2022/07/17 09:29:04;;;;;;;1.30;1.10;;;;;29.44;97961.60;;;;111312;1244;41162;-74
2022/07/17 09:31:33;;;;;;;1.60;1.00;;;;;29.94;97949.40;;;;111161;1247;41140;-74
2022/07/17 09:34:02;;;;;;;3.30;1.20;;;;;30.14;97945.20;;;;111071;1248;41613;-75
2022/07/17 09:36:32;;;;;;;2.10;1.10;;;;;30.08;97953.80;;;;111152;1249;41144;-75
2022/07/17 09:39:01;;;;;;;1.70;1.10;;;;;30.48;97956.20;;;;111167;1248;41305;-76
2022/07/17 09:41:33;;;;;;;3.20;0.90;;;;;30.98;97957.60;;;;111211;1247;41146;-74
2022/07/17 09:44:02;;;;;;;4.40;1.10;;;;;30.66;97953.60;;;;111284;1245;41155;-72
2022/07/17 09:46:36;;;;;;;1.30;1.10;;;;;30.90;97957.20;;;;111177;1247;41493;-74
2022/07/17 09:49:09;;;;;;;3.20;1.00;;;;;31.08;97956.00;;;;111364;1244;41819;-74
2022/07/17 09:51:39;;;;;;;3.10;1.20;;;;;31.32;97949.60;;;;111168;1248;41964;-75
2022/07/17 09:54:10;;;;;;;2.30;1.20;;;;;31.00;97960.00;;;;111190;1249;41933;-74
2022/07/17 09:56:40;;;;;;;1.60;1.00;;;;;31.26;97970.40;;;;111272;1247;41660;-73
2022/07/17 09:59:12;;;;;;;0.80;0.70;;;;;31.66;97961.40;;;;111279;1247;41136;-76
2022/07/17 10:01:43;;;;;;;1.40;0.90;;;;;32.14;97960.00;;;;111281;1247;41715;-76
2022/07/17 10:04:13;;;;;;;2.40;1.20;;;;;32.60;97960.60;;;;111100;1248;42390;-75
2022/07/17 10:06:42;;;;;;;2.60;0.90;;;;;32.60;97960.80;;;;111162;1249;41268;-75
2022/07/17 10:09:13;;;;;;;2.00;1.10;;;;;32.70;97965.20;;;;111199;1247;41532;-75
2022/07/17 10:11:42;;;;;;;3.30;1.10;;;;;32.38;97952.00;;;;111175;1249;42415;-79
2022/07/17 10:14:16;;;;;;;2.20;1.00;;;;;32.12;97969.60;;;;111098;1245;41151;-77
2022/07/17 10:16:45;;;;;;;;;;;;;32.02;97972.20;;;;111485;1244;41246;-75
2022/07/17 10:19:20;;;;;;;1.60;1.10;;;;;32.00;97972.80;;;;111221;1247;41153;-74
2022/07/17 10:22:00;;;;;;;2.90;1.20;;;;;31.70;97975.60;;;;111363;1247;41142;-74
2022/07/17 10:24:29;;;;;;;1.40;1.00;;;;;31.78;97968.60;;;;111116;1248;41151;-74
2022/07/17 10:26:59;;;;;;;1.40;1.00;;;;;31.74;97973.00;;;;111144;1247;41255;-70
2022/07/17 10:29:32;;;;;;;1.90;1.10;;;;;31.70;97969.40;;;;111236;1247;41178;-73
2022/07/17 10:32:16;;;;;;;2.90;1.10;;;;;31.64;97962.40;;;;111401;1245;42169;-74
2022/07/17 10:35:03;;;;;;;3.00;1.00;;;;;31.66;97961.80;;;;111279;1247;42502;-74
2022/07/17 10:37:39;;;;;;;1.10;0.90;;;;;31.30;97971.00;;;;111169;1246;41516;-74
2022/07/17 10:40:28;;;;;;;1.20;0.90;;;;;31.32;97962.00;;;;111235;1247;41187;-75
2022/07/17 10:42:59;;;;;;;4.10;1.30;;;;;31.04;97970.40;;;;111287;1245;41314;-71
2022/07/17 10:45:39;;;;;;;1.20;0.90;;;;;30.60;97977.80;;;;111360;1247;41151;-74
2022/07/17 10:48:15;;;;;;;1.70;0.80;;;;;30.56;97971.40;;;;111280;1247;41169;-74
2022/07/17 10:50:49;;;;;;;1.70;1.00;;;;;30.48;97976.40;;;;111140;1249;41266;-74
2022/07/17 10:53:24;;;;;;;1.40;1.00;;;;;30.78;97961.80;;;;111215;1247;41358;-74
2022/07/17 10:56:04;;;;;;;4.30;1.40;;;;;30.28;97971.20;;;;111185;1248;41528;-73
2022/07/17 10:58:44;;;;;;;4.40;1.50;;;;;30.56;97962.80;;;;111170;1248;41174;-75
2022/07/17 11:01:13;;;;;;;2.40;1.40;;;;;30.78;97965.20;;;;111119;1249;41187;-75
2022/07/17 11:03:52;;;;;;;2.90;1.20;;;;;31.14;97957.20;;;;111220;1246;42330;-76
2022/07/17 11:06:24;;;;;;;2.10;1.20;;;;;31.10;97966.40;;;;111294;1245;41136;-75
2022/07/17 11:08:56;;;;;;;1.50;1.10;;;;;31.72;97952.60;;;;111409;1245;41136;-74
2022/07/17 11:11:51;;;;;;;1.60;1.00;;;;;32.26;97947.40;;;;111201;1248;42242;-71
2022/07/17 11:14:20;;;;;;;2.40;1.00;;;;;32.78;97950.80;;;;111154;1247;41325;-76
2022/07/17 11:16:59;;;;;;;;;;;;;33.52;97949.60;;;;111316;1246;42018;-76
2022/07/17 11:19:34;;;;;;;1.90;1.00;;;;;33.88;97948.60;;;;111482;1246;41410;-74
2022/07/17 11:22:09;;;;;;;1.70;1.00;;;;;34.50;97951.60;;;;111248;1247;41267;-74
2022/07/17 11:24:44;;;;;;;1.20;0.80;;;;;35.20;97944.20;;;;111172;1248;41137;-75
2022/07/17 11:27:23;;;;;;;1.80;1.00;;;;;35.90;97951.00;;;;111290;1246;42067;-73
2022/07/17 11:29:53;;;;;;;1.30;0.90;;;;;35.90;97948.80;;;;111400;1247;42403;-75
2022/07/17 11:32:23;;;;;;;1.40;1.00;;;;;35.94;97949.00;;;;110990;1250;41933;-74
2022/07/17 11:34:52;;;;;;;1.10;0.70;;;;;36.32;97941.40;;;;111042;1248;41606;-75
2022/07/17 11:37:22;;;;;;;1.20;0.90;;;;;36.76;97944.20;;;;111133;1247;42372;-74
2022/07/17 11:39:51;;;;;;;2.80;1.20;;;;;37.12;97941.20;;;;111267;1246;41132;-73
2022/07/17 11:42:22;;;;;;;4.10;1.40;;;;;37.54;97940.00;;;;111333;1248;41726;-73
2022/07/17 11:44:54;;;;;;;1.40;1.00;;;;;37.10;97938.40;;;;111245;1247;42394;-75
2022/07/17 11:47:28;;;;;;;2.00;1.10;;;;;37.34;97934.60;;;;111211;1247;41420;-74
2022/07/17 11:50:13;;;;;;;1.30;1.00;;;;;36.44;97939.60;;;;111267;1246;41239;-75
2022/07/17 11:52:48;;;;;;;1.60;0.90;;;;;36.24;97938.00;;;;111133;1247;41667;-74
2022/07/17 11:55:17;;;;;;;1.80;0.80;;;;;35.60;97937.60;;;;111182;1247;41174;-75
2022/07/17 11:57:49;;;;;;;1.80;0.90;;;;;35.60;97934.20;;;;111122;1247;41266;-76
2022/07/17 12:00:20;;;;;;;4.90;1.00;;;;;35.32;97934.20;;;;111280;1247;41175;-75
2022/07/17 12:03:03;;;;;;;3.70;1.00;;;;;35.20;97935.40;;;;111229;1245;41893;-76
2022/07/17 12:05:35;;;;;;;1.40;0.90;;;;;35.84;97931.80;;;;111238;1247;41584;-75
2022/07/17 12:08:08;;;;;;;1.20;0.90;;;;;35.82;97942.80;;;;111252;1247;41152;-76
2022/07/17 12:10:37;;;;;;;1.30;0.90;;;;;35.64;97934.40;;;;111304;1246;41621;-75
2022/07/17 12:13:07;;;;;;;2.70;1.00;;;;;34.96;97938.60;;;;111272;1247;41262;-75
2022/07/17 12:15:42;;;;;;;1.90;0.90;;;;;34.70;97940.40;;;;111227;1246;41336;-76
2022/07/17 12:18:24;;;;;;;1.90;1.00;;;;;34.38;97937.20;;;;111237;1247;41161;-77
2022/07/17 12:20:55;;;;;;;3.20;1.00;;;;;33.78;97943.40;;;;111295;1246;41711;-71
2022/07/17 12:23:34;;;;;;;2.60;0.90;;;;;32.98;97948.40;;;;111272;1247;41247;-77
2022/07/17 12:26:10;;;;;;;1.00;0.80;;;;;32.16;97948.20;;;;111199;1247;41794;-73
2022/07/17 12:28:40;;;;;;;2.50;0.80;;;;;31.00;97947.60;;;;111126;1248;41161;-76
2022/07/17 12:31:10;;;;;;;2.80;1.30;;;;;30.32;97945.60;;;;111162;1248;41254;-76